Kappa, Illinois
Current Conditions -  °F | °C
As of 4:56 PM on Thursday 18 Dec 2014 (Local Time) from KBMI Reporting Station
Broken Clouds Broken Clouds  
Wind Chill: 27°   Ceiling: 5500
Heat Index: 27°   Visibility: 10mi
Dew Point: 21°   Wind: 0mph
Humidity: 78%   Direction: NA
Pressure: 30.25"   Gusts: NA
Location:  40.7564°N, 89.0023°W
Report Text: KBMI 182256Z 00000KT 10SM BKN055 M03/M06 A3025 RMK AO2 T10271061 BKN V SCT SLP265
Loading
Personal Weather Stations






























Interactive Weather Map New forecast layout! Learn more

10-Day Weather Forecast

Advertisements
Track Severe Weather on mobile